createdAt,value
2022-08-17T00:00:43.332Z,99889.19
2022-08-17T00:03:15.352Z,99926.91
2022-08-17T00:05:57.912Z,99852.03
2022-08-17T00:08:29.275Z,99924.91
2022-08-17T00:10:56.960Z,99923.00
2022-08-17T00:13:42.199Z,99812.22
2022-08-17T00:16:56.396Z,99856.03
2022-08-17T00:19:22.969Z,99892.50
2022-08-17T00:22:30.963Z,99924.91
2022-08-17T00:24:39.766Z,99877.88
2022-08-17T00:27:06.806Z,99844.84
2022-08-17T00:29:33.590Z,99874.94
2022-08-17T00:32:01.808Z,99798.31
2022-08-17T00:34:49.166Z,99907.00
2022-08-17T00:37:16.237Z,99820.94
2022-08-17T00:39:44.442Z,99838.16
2022-08-17T00:42:16.880Z,99889.09
2022-08-17T00:44:44.212Z,99859.97
2022-08-17T00:47:11.240Z,99836.72
2022-08-17T00:49:38.369Z,99842.88
2022-08-17T00:52:15.390Z,99871.41
2022-08-17T00:54:55.459Z,99800.19
2022-08-17T00:57:35.085Z,99780.53
2022-08-17T01:00:16.404Z,99911.50
2022-08-17T01:02:46.891Z,99908.53
2022-08-17T01:05:21.203Z,99920.31
2022-08-17T01:07:51.033Z,99848.72
2022-08-17T01:11:00.533Z,99918.91
2022-08-17T01:13:15.061Z,99805.72
2022-08-17T01:15:48.716Z,99743.00
2022-08-17T01:18:16.631Z,99812.06
2022-08-17T01:20:52.844Z,99819.03
2022-08-17T01:23:23.395Z,99911.09
2022-08-17T01:25:54.217Z,99901.09
2022-08-17T01:28:53.191Z,99917.22
2022-08-17T01:31:11.745Z,99804.84
2022-08-17T01:33:49.073Z,99895.09
2022-08-17T01:36:17.876Z,99912.31
2022-08-17T01:38:44.699Z,99915.16
2022-08-17T01:41:15.877Z,99910.22
2022-08-17T01:43:51.558Z,99872.56
2022-08-17T01:46:25.208Z,99912.78
2022-08-17T01:48:53.436Z,99889.66
2022-08-17T01:51:21.467Z,99789.59
2022-08-17T01:53:52.791Z,99906.53
2022-08-17T01:56:23.016Z,99805.78
2022-08-17T02:02:47.845Z,99923.56
2022-08-17T02:05:15.553Z,99892.88
2022-08-17T02:07:59.982Z,99914.00
2022-08-17T02:10:34.020Z,99916.56
2022-08-17T02:13:03.583Z,99882.81
2022-08-17T02:15:30.903Z,99850.34
2022-08-17T02:17:57.939Z,99931.38
2022-08-17T02:20:41.262Z,99801.13
2022-08-17T02:23:12.654Z,99932.75
2022-08-17T02:25:43.402Z,99918.28
2022-08-17T02:28:11.119Z,99804.31
2022-08-17T02:31:01.228Z,99879.34
2022-08-17T02:33:41.728Z,99834.69
2022-08-17T02:36:09.557Z,99917.28
2022-08-17T02:38:40.297Z,99889.63
2022-08-17T02:41:07.806Z,99904.28
2022-08-17T02:43:49.753Z,99916.34
2022-08-17T02:46:16.981Z,99757.00
2022-08-17T02:48:43.839Z,99824.19
2022-08-17T02:51:10.771Z,99808.72
2022-08-17T03:00:49.640Z,99744.34
2022-08-17T03:03:24.061Z,99748.84
2022-08-17T03:08:49.590Z,99750.00
2022-08-17T03:11:29.054Z,99785.50
2022-08-17T03:13:58.763Z,99946.38
2022-08-17T03:16:25.685Z,99829.31
2022-08-17T03:18:54.478Z,99842.66
2022-08-17T03:21:21.852Z,99952.34
2022-08-17T03:23:48.840Z,99958.91
2022-08-17T03:26:21.475Z,99913.19
2022-08-17T03:28:49.090Z,99854.53
2022-08-17T03:31:16.203Z,99895.84
2022-08-17T03:33:43.570Z,99840.69
2022-08-17T03:36:11.233Z,99853.00
2022-08-17T03:38:38.909Z,99750.13
2022-08-17T03:41:07.185Z,99813.72
2022-08-17T03:43:34.880Z,99969.88
2022-08-17T03:46:28.367Z,99944.09
2022-08-17T03:49:25.491Z,99932.75
2022-08-17T03:52:12.768Z,99970.59
2022-08-17T03:55:16.625Z,99864.34
2022-08-17T03:57:43.761Z,99930.06
2022-08-17T04:00:12.933Z,99936.31
2022-08-17T04:02:42.486Z,99984.44
2022-08-17T04:05:20.289Z,99781.44
2022-08-17T04:07:48.014Z,99818.69
2022-08-17T04:10:15.105Z,99958.34
2022-08-17T04:12:49.063Z,99999.56
2022-08-17T04:15:54.067Z,99907.00
2022-08-17T04:18:21.379Z,100014.31
2022-08-17T04:20:48.177Z,99995.47
2022-08-17T04:23:20.389Z,99887.72
2022-08-17T04:25:51.128Z,99873.28
2022-08-17T04:28:24.557Z,99893.41
2022-08-17T04:30:51.940Z,100011.69
2022-08-17T04:33:24.426Z,99962.03
2022-08-17T04:36:53.399Z,100008.19
2022-08-17T04:40:52.313Z,99997.59
2022-08-17T04:44:07.773Z,100006.41
2022-08-17T04:46:36.250Z,99999.59
2022-08-17T04:49:09.384Z,100005.13
2022-08-17T04:51:47.953Z,100009.66
2022-08-17T04:54:29.013Z,99966.28
2022-08-17T04:56:56.146Z,99956.28
2022-08-17T04:59:23.447Z,100010.50
2022-08-17T05:01:51.825Z,99994.63
2022-08-17T05:04:34.137Z,99934.56
2022-08-17T05:07:03.276Z,99854.47
2022-08-17T05:09:31.067Z,99934.97
2022-08-17T05:12:03.525Z,99973.91
2022-08-17T05:14:40.618Z,99920.88
2022-08-17T05:17:11.382Z,99924.31
2022-08-17T05:19:38.551Z,100029.09
2022-08-17T05:22:06.161Z,99932.22
2022-08-17T05:24:43.369Z,99977.56
2022-08-17T05:27:18.920Z,99976.88
2022-08-17T05:29:46.406Z,99941.88
2022-08-17T05:32:37.897Z,100045.44
2022-08-17T05:35:02.010Z,99980.09
2022-08-17T05:37:29.202Z,99986.94
2022-08-17T05:39:56.187Z,100043.81
2022-08-17T05:42:24.092Z,100013.38
2022-08-17T05:44:50.910Z,99972.00
2022-08-17T05:47:18.374Z,99963.28
2022-08-17T05:49:45.665Z,99995.91
2022-08-17T05:52:56.382Z,100053.38
2022-08-17T05:55:46.845Z,99980.47
2022-08-17T05:58:16.612Z,100060.31
2022-08-17T06:01:00.349Z,99989.56
2022-08-17T06:04:16.697Z,100068.81
2022-08-17T06:07:00.645Z,99890.38
2022-08-17T06:10:28.904Z,99983.03
2022-08-17T06:31:23.627Z,99906.41
2022-08-17T06:33:54.468Z,99972.81
2022-08-17T06:39:41.491Z,100051.22
2022-08-17T06:45:24.571Z,100000.81
2022-08-17T06:50:44.551Z,100051.63
2022-08-17T06:53:46.380Z,100057.41
2022-08-17T06:56:27.149Z,99941.47
2022-08-17T06:59:19.763Z,100062.00
2022-08-17T07:01:52.662Z,99904.88
2022-08-17T07:04:26.828Z,100029.59
2022-08-17T07:07:01.348Z,99975.53
2022-08-17T07:09:35.787Z,100064.94
2022-08-17T07:12:12.235Z,99984.59
2022-08-17T07:15:04.537Z,100059.66
2022-08-17T07:17:46.722Z,99947.00
2022-08-17T07:23:39.154Z,99994.00
2022-08-17T07:29:21.109Z,99969.16
2022-08-17T07:31:49.094Z,99877.97
2022-08-17T07:34:22.320Z,100016.03
2022-08-17T07:37:05.471Z,99993.09
2022-08-17T07:39:35.377Z,99963.88
2022-08-17T07:42:22.995Z,99911.50
2022-08-17T07:44:55.881Z,100050.81
2022-08-17T07:47:41.631Z,100010.78
2022-08-17T07:50:27.235Z,100035.88
2022-08-17T07:52:54.338Z,99972.31
2022-08-17T07:55:31.058Z,100063.47
2022-08-17T07:58:02.073Z,100058.81
2022-08-17T08:00:33.388Z,100029.16
2022-08-17T08:03:22.178Z,99891.34
2022-08-17T08:09:45.728Z,99930.78
2022-08-17T08:16:26.035Z,100057.69
2022-08-17T08:19:28.412Z,99971.69
2022-08-17T08:22:20.032Z,100014.72
2022-08-17T08:29:33.229Z,100066.28
2022-08-17T08:33:11.727Z,99917.06
2022-08-17T08:41:54.012Z,100058.38
2022-08-17T08:45:00.377Z,99966.97
2022-08-17T08:47:50.804Z,100061.13
2022-08-17T08:50:37.897Z,100011.53
2022-08-17T08:53:15.155Z,100051.53
2022-08-17T08:55:51.936Z,99912.75
2022-08-17T08:58:41.276Z,100050.09
2022-08-17T09:01:44.269Z,99991.25
2022-08-17T09:05:02.692Z,100005.75
2022-08-17T09:08:03.295Z,100053.31
2022-08-17T09:10:35.782Z,100044.50
2022-08-17T09:13:29.111Z,100047.75
2022-08-17T09:16:06.771Z,100040.63
2022-08-17T09:18:59.923Z,100046.88
2022-08-17T09:22:21.049Z,100041.38
2022-08-17T09:25:21.732Z,99904.88
2022-08-17T09:28:28.856Z,99917.34
2022-08-17T09:31:04.249Z,99895.97
2022-08-17T09:33:37.100Z,99969.97
2022-08-17T09:36:11.930Z,99923.00
2022-08-17T09:39:03.459Z,100026.19
2022-08-17T09:41:33.094Z,100029.47
2022-08-17T09:44:23.425Z,100018.00
2022-08-17T09:46:56.947Z,100019.78
2022-08-17T09:49:40.615Z,100020.97
2022-08-17T09:52:21.364Z,99975.53
2022-08-17T09:54:51.397Z,100003.47
2022-08-17T09:57:31.056Z,99970.34
2022-08-17T10:00:15.030Z,100020.25
2022-08-17T10:02:50.932Z,100011.25
2022-08-17T10:05:47.103Z,100011.41
2022-08-17T10:08:30.570Z,100007.50
2022-08-17T10:11:05.844Z,99975.06
2022-08-17T10:14:36.584Z,100001.31
2022-08-17T10:17:27.638Z,99993.19
2022-08-17T10:20:12.378Z,100007.16
2022-08-17T10:23:05.908Z,100011.97
2022-08-17T10:26:15.641Z,99958.09
2022-08-17T10:29:06.513Z,100005.06
2022-08-17T10:31:47.450Z,99976.84
2022-08-17T10:34:46.006Z,100012.16
2022-08-17T10:37:13.192Z,99999.66
2022-08-17T10:39:57.470Z,100000.78
2022-08-17T10:42:32.926Z,99978.31
2022-08-17T10:45:16.085Z,99963.41
2022-08-17T10:48:05.025Z,99986.56
2022-08-17T10:50:54.624Z,100001.66
2022-08-17T10:53:44.483Z,100001.66
2022-08-17T10:56:18.834Z,99996.25
2022-08-17T10:58:49.880Z,99994.06
2022-08-17T11:01:24.625Z,100000.25
2022-08-17T11:04:41.244Z,99951.41
2022-08-17T11:07:44.137Z,99925.38
2022-08-17T11:11:11.660Z,99993.34
2022-08-17T11:13:55.332Z,99980.13
2022-08-17T11:16:35.653Z,99992.22
2022-08-17T11:19:14.973Z,99977.50
2022-08-17T11:22:05.574Z,99966.81
2022-08-17T11:24:49.169Z,99923.44
2022-08-17T11:27:31.245Z,99966.75
2022-08-17T11:30:03.384Z,99960.47
2022-08-17T11:32:32.297Z,99971.84
2022-08-17T11:35:12.700Z,99960.69
2022-08-17T11:38:05.066Z,99964.53
2022-08-17T11:40:48.709Z,99970.53
2022-08-17T11:43:44.484Z,99949.16
2022-08-17T11:47:06.549Z,99971.69
2022-08-17T11:50:15.102Z,99969.34
2022-08-17T11:52:47.026Z,99968.94
2022-08-17T11:55:36.326Z,99964.00
2022-08-17T11:58:06.727Z,99835.91
2022-08-17T12:00:45.516Z,99944.94
2022-08-17T12:03:32.054Z,99907.88
2022-08-17T12:06:30.493Z,99961.16
2022-08-17T12:09:21.272Z,99953.75
2022-08-17T12:12:13.305Z,99894.09
2022-08-17T12:15:10.510Z,99799.94
2022-08-17T12:17:40.793Z,99856.41
2022-08-17T12:20:35.050Z,99825.63
2022-08-17T12:23:07.131Z,99897.63
2022-08-17T12:25:43.819Z,99870.88
2022-08-17T12:28:32.774Z,99863.56
2022-08-17T12:31:04.050Z,99944.16
2022-08-17T12:33:43.995Z,99933.72
2022-08-17T12:36:19.137Z,99934.06
2022-08-17T12:39:14.114Z,99924.25
2022-08-17T12:41:45.350Z,99924.19
2022-08-17T12:44:24.945Z,99895.66
2022-08-17T12:47:22.355Z,99868.88
2022-08-17T12:50:08.379Z,99815.09
2022-08-17T12:52:59.640Z,99874.41
2022-08-17T12:55:32.686Z,99925.44
2022-08-17T12:58:02.325Z,99929.81
2022-08-17T13:00:32.195Z,99894.13
2022-08-17T13:03:03.381Z,99934.41
2022-08-17T13:05:36.031Z,99927.28
2022-08-17T13:08:13.887Z,99920.56
2022-08-17T13:10:41.271Z,99893.94
2022-08-17T13:13:23.508Z,99919.31
2022-08-17T13:15:57.588Z,99917.19
2022-08-17T13:18:36.605Z,99919.13
2022-08-17T13:21:03.893Z,99911.22
2022-08-17T13:23:32.357Z,99874.06
2022-08-17T13:26:06.851Z,99852.31
2022-08-17T13:28:36.816Z,99853.31
2022-08-17T13:31:26.294Z,99913.94
2022-08-17T13:34:13.374Z,99859.44
2022-08-17T13:36:42.331Z,99854.88
2022-08-17T13:39:16.421Z,99855.06
2022-08-17T13:41:43.401Z,99892.28
2022-08-17T13:44:42.647Z,99904.06
2022-08-17T13:47:20.777Z,99884.22
2022-08-17T13:49:49.441Z,99905.78
2022-08-17T13:52:38.031Z,99905.66
2022-08-17T13:55:19.744Z,99906.19
2022-08-17T13:57:49.962Z,99841.19
2022-08-17T14:00:35.381Z,99848.47
2022-08-17T14:03:07.510Z,99897.66
2022-08-17T14:05:38.244Z,99830.91
2022-08-17T14:08:07.011Z,99866.16
2022-08-17T14:10:36.627Z,99805.81
2022-08-17T14:13:04.257Z,99780.81
2022-08-17T14:15:54.928Z,99853.78
2022-08-17T14:18:35.743Z,99888.31
2022-08-17T14:21:08.458Z,99834.56
2022-08-17T14:23:37.028Z,99871.75
2022-08-17T14:26:04.913Z,99884.78
2022-08-17T14:28:32.248Z,99891.63
2022-08-17T14:31:00.831Z,99891.34
2022-08-17T14:33:29.033Z,99885.69
2022-08-17T14:35:57.585Z,99874.19
2022-08-17T14:38:24.696Z,99860.25
2022-08-17T14:40:51.903Z,99856.56
2022-08-17T14:43:20.473Z,99887.09
2022-08-17T14:45:47.433Z,99889.03
2022-08-17T14:48:14.227Z,99887.88
2022-08-17T14:50:43.114Z,99871.13
2022-08-17T14:53:12.625Z,99880.31
2022-08-17T14:55:41.993Z,99861.00
2022-08-17T14:58:09.495Z,99876.59
2022-08-17T15:00:37.235Z,99811.91
2022-08-17T15:03:05.305Z,99875.94
2022-08-17T15:05:34.876Z,99876.44
2022-08-17T15:08:02.808Z,99883.16
2022-08-17T15:10:30.413Z,99875.88
2022-08-17T15:12:58.070Z,99882.72
2022-08-17T15:15:24.953Z,99889.78
2022-08-17T15:17:51.924Z,99852.34
2022-08-17T15:20:22.977Z,99849.41
2022-08-17T15:22:50.995Z,99843.38
2022-08-17T15:25:20.135Z,99849.06
2022-08-17T15:27:47.611Z,99796.56
2022-08-17T15:30:15.937Z,99849.94
2022-08-17T15:32:51.233Z,99890.34
2022-08-17T15:35:27.406Z,99804.72
2022-08-17T15:38:11.316Z,99881.34
2022-08-17T15:40:44.155Z,99844.63
2022-08-17T15:43:15.341Z,99869.34
2022-08-17T15:45:43.450Z,99877.41
2022-08-17T15:48:10.631Z,99894.75
2022-08-17T15:50:38.308Z,99879.72
2022-08-17T15:53:05.678Z,99853.31
2022-08-17T15:55:33.178Z,99877.59
2022-08-17T15:58:00.769Z,99816.16
2022-08-17T16:00:29.417Z,99878.31
2022-08-17T16:03:13.420Z,99807.88
2022-08-17T16:05:47.697Z,99852.09
2022-08-17T16:08:20.024Z,99860.03
2022-08-17T16:10:48.373Z,99886.09
2022-08-17T16:13:17.506Z,99826.03
2022-08-17T16:15:51.072Z,99884.75
2022-08-17T16:18:31.416Z,99887.63
2022-08-17T16:21:19.598Z,99890.19
2022-08-17T16:23:49.227Z,99877.19
2022-08-17T16:26:16.250Z,99889.56
2022-08-17T16:28:43.090Z,99883.03
2022-08-17T16:31:10.066Z,99884.97
2022-08-17T16:33:39.442Z,99883.81
2022-08-17T16:36:07.489Z,99863.09
2022-08-17T16:38:36.030Z,99858.31
2022-08-17T16:41:04.471Z,99882.19
2022-08-17T16:43:32.124Z,99877.50
2022-08-17T16:46:00.784Z,99890.56
2022-08-17T16:48:29.161Z,99822.84
2022-08-17T16:51:03.277Z,99873.72
2022-08-17T16:53:31.968Z,99864.84
2022-08-17T16:55:58.788Z,99873.31
2022-08-17T16:58:25.552Z,99842.97
2022-08-17T17:00:52.526Z,99894.66
2022-08-17T17:03:24.662Z,99872.66
2022-08-17T17:05:58.065Z,99903.00
2022-08-17T17:08:44.811Z,99903.19
2022-08-17T17:11:37.838Z,99902.13
2022-08-17T17:14:09.679Z,99871.16
2022-08-17T17:16:36.696Z,99906.19
2022-08-17T17:19:11.936Z,99841.31
2022-08-17T17:21:46.377Z,99899.75
2022-08-17T17:24:32.535Z,99853.22
2022-08-17T17:27:20.589Z,99900.38
2022-08-17T17:29:59.548Z,99913.53
2022-08-17T17:32:26.503Z,99920.34
2022-08-17T17:35:04.471Z,99887.72
2022-08-17T17:37:34.839Z,99902.38
2022-08-17T17:40:17.469Z,99913.38
2022-08-17T17:42:45.585Z,99908.44
2022-08-17T17:45:26.138Z,99921.47
2022-08-17T17:47:53.574Z,99892.19
2022-08-17T17:50:30.987Z,99903.38
2022-08-17T17:53:34.792Z,99910.59
2022-08-17T17:56:44.208Z,99917.84
2022-08-17T17:59:41.836Z,99877.56
2022-08-17T18:02:44.618Z,99934.19
2022-08-17T18:05:45.310Z,99930.47
2022-08-17T18:08:21.839Z,99905.44
2022-08-17T18:11:24.225Z,99876.84
2022-08-17T18:14:14.805Z,99945.75
2022-08-17T18:16:44.287Z,99953.00
2022-08-17T18:19:20.085Z,99949.44
2022-08-17T18:22:02.321Z,99945.13
2022-08-17T18:24:36.225Z,99934.88
2022-08-17T18:27:27.955Z,99964.47
2022-08-17T18:29:57.713Z,99970.84
2022-08-17T18:32:33.997Z,99965.69
2022-08-17T18:35:09.958Z,99968.22
2022-08-17T18:37:55.607Z,99951.59
2022-08-17T18:40:31.761Z,99955.19
2022-08-17T18:43:06.872Z,99949.72
2022-08-17T18:45:40.792Z,99977.13
2022-08-17T18:48:33.095Z,99984.84
2022-08-17T18:51:39.952Z,99961.38
2022-08-17T18:54:12.438Z,99985.19
2022-08-17T18:56:54.385Z,99979.75
2022-08-17T18:59:41.642Z,99983.06
2022-08-17T19:02:32.468Z,99978.97
2022-08-17T19:08:29.908Z,99982.81
2022-08-17T19:11:19.075Z,99991.28
2022-08-17T19:13:57.587Z,99980.59
2022-08-17T19:16:31.328Z,99986.09
2022-08-17T19:19:11.015Z,99925.56
2022-08-17T19:21:43.671Z,99960.63
2022-08-17T19:24:27.675Z,99992.38
2022-08-17T19:27:12.232Z,99981.69
2022-08-17T19:29:45.240Z,99999.72
2022-08-17T19:32:18.507Z,99944.38
2022-08-17T19:34:45.608Z,99941.34
2022-08-17T19:37:28.823Z,99962.97
2022-08-17T19:40:08.391Z,99907.31
2022-08-17T19:43:16.599Z,99956.63
2022-08-17T19:45:49.696Z,100006.16
2022-08-17T19:48:40.692Z,100002.31
2022-08-17T19:51:17.744Z,100002.00
2022-08-17T19:54:05.796Z,99952.09
2022-08-17T19:56:50.634Z,99999.69
2022-08-17T19:59:41.439Z,99961.56
2022-08-17T20:02:32.432Z,100000.66
2022-08-17T20:05:03.253Z,99996.75
2022-08-17T20:07:50.695Z,99998.81
2022-08-17T20:10:33.509Z,99938.75
2022-08-17T20:13:07.162Z,99999.25
2022-08-17T20:15:36.390Z,100000.84
2022-08-17T20:18:14.231Z,99964.09
2022-08-17T20:20:54.720Z,99997.19
2022-08-17T20:23:44.956Z,99980.13
2022-08-17T20:26:23.487Z,99976.25
2022-08-17T20:29:19.686Z,100008.59
2022-08-17T20:32:13.743Z,100016.97
2022-08-17T20:34:46.648Z,100020.53
2022-08-17T20:37:16.160Z,100016.63
2022-08-17T20:39:45.265Z,100023.94
2022-08-17T20:42:20.878Z,100014.13
2022-08-17T20:45:21.879Z,100019.22
2022-08-17T20:48:18.489Z,100010.38
2022-08-17T20:50:45.249Z,99935.91
2022-08-17T20:53:32.494Z,100017.84
2022-08-17T20:55:59.646Z,99973.84
2022-08-17T20:58:31.114Z,100023.72
2022-08-17T21:01:01.536Z,100027.19
2022-08-17T21:03:50.252Z,100014.66
2022-08-17T21:06:18.289Z,100027.94
2022-08-17T21:08:53.854Z,100026.78
2022-08-17T21:12:02.835Z,100024.59
2022-08-17T21:14:19.186Z,100025.06
2022-08-17T21:16:58.916Z,100025.97
2022-08-17T21:20:09.751Z,100002.72
2022-08-17T21:22:47.139Z,100013.25
2022-08-17T21:25:57.782Z,99975.69
2022-08-17T21:29:00.965Z,100041.84
2022-08-17T21:31:39.561Z,99989.34
2022-08-17T21:34:15.545Z,100046.19
2022-08-17T21:36:44.480Z,100031.09
2022-08-17T21:39:17.388Z,100052.78
2022-08-17T21:41:53.161Z,100026.50
2022-08-17T21:44:27.830Z,100041.13
2022-08-17T21:47:18.515Z,100001.25
2022-08-17T21:49:45.263Z,100033.47
2022-08-17T21:52:18.171Z,100031.56
2022-08-17T21:54:52.891Z,100011.47
2022-08-17T21:57:27.443Z,100032.88
2022-08-17T21:59:58.539Z,100002.09
2022-08-17T22:02:54.015Z,100030.81
2022-08-17T22:05:39.301Z,100006.38
2022-08-17T22:08:26.479Z,100011.22
2022-08-17T22:11:01.723Z,100038.50
2022-08-17T22:13:29.661Z,99962.06
2022-08-17T22:17:02.667Z,100030.31
2022-08-17T22:23:33.487Z,100022.03
2022-08-17T22:29:33.258Z,100020.03
2022-08-17T22:36:11.665Z,100015.50
2022-08-17T22:38:40.622Z,99997.78
2022-08-17T22:41:32.023Z,99852.53
2022-08-17T22:44:47.046Z,99836.91
2022-08-17T22:47:17.105Z,100025.06
2022-08-17T22:49:57.741Z,100009.28
2022-08-17T22:52:33.967Z,100030.06
2022-08-17T22:55:35.972Z,100037.53
2022-08-17T22:58:40.145Z,100032.34
2022-08-17T23:01:34.062Z,100032.41
2022-08-17T23:04:48.196Z,100035.50
2022-08-17T23:07:53.438Z,100011.94
2022-08-17T23:10:20.386Z,100031.28
2022-08-17T23:12:48.541Z,100025.97
2022-08-17T23:15:22.209Z,100044.03
2022-08-17T23:17:51.123Z,100021.84
2022-08-17T23:20:19.302Z,100024.44
2022-08-17T23:22:52.026Z,99996.75
2022-08-17T23:25:36.577Z,100042.25
2022-08-17T23:28:05.836Z,100035.69
2022-08-17T23:30:43.836Z,100045.81
2022-08-17T23:33:30.196Z,100032.81
2022-08-17T23:36:00.602Z,100006.16
2022-08-17T23:38:28.036Z,100059.50
2022-08-17T23:41:00.056Z,100043.09
2022-08-17T23:43:32.912Z,100061.69
2022-08-17T23:46:00.907Z,100052.75
2022-08-17T23:48:36.345Z,100060.75
2022-08-17T23:51:20.620Z,100030.78
2022-08-17T23:54:13.857Z,100052.47
2022-08-17T23:57:00.570Z,100016.66
2022-08-17T23:59:33.642Z,99886.63
